Time;durP1;ratioP1;P1;durP2;ratioP2;P2;SDS_P1;SDS_P2;PMS_P1;PMS_P2;Temp;Humidity;BMP_temperature;BMP_pressure;BME280_temperature;BME280_humidity;BME280_pressure;Samples;Min_cycle;Max_cycle;Signal;HPM_P1;HPM_P2
2022/10/15 00:00:34;;;;;;;13.43;9.63;;;;;;;15.75;58.96;99669.88;10107096;29;20202;-82
2022/10/15 00:05:56;;;;;;;11.15;9.73;;;;;;;16.36;56.13;99671.38;10065432;29;20503;-81
2022/10/15 00:11:21;;;;;;;11.67;10.30;;;;;;;16.29;56.32;99665.59;10064878;29;20237;-84
2022/10/15 00:16:44;;;;;;;10.88;9.75;;;;;;;15.44;59.78;99660.50;10091292;29;20205;-81
2022/10/15 00:22:06;;;;;;;11.53;10.43;;;;;;;14.90;61.32;99648.75;10076492;29;20265;-81
2022/10/15 00:27:28;;;;;;;13.10;11.65;;;;;;;15.89;57.17;99655.81;10061565;29;20305;-81
2022/10/15 00:32:50;;;;;;;11.27;10.03;;;;;;;15.28;60.44;99642.84;10078219;29;20249;-81
2022/10/15 00:38:12;;;;;;;13.23;10.87;;;;;;;15.28;59.55;99639.16;10094878;29;20202;-81
2022/10/15 00:43:44;;;;;;;13.13;10.97;;;;;;;15.19;59.89;99638.66;10096425;29;20607;-83
2022/10/15 00:49:16;;;;;;;11.53;10.40;;;;;;;15.24;59.74;99636.28;10070670;29;20316;-81
2022/10/15 00:54:40;;;;;;;11.67;10.40;;;;;;;15.69;57.71;99640.16;10091470;29;20615;-82
2022/10/15 01:00:11;;;;;;;11.43;10.27;;;;;;;16.08;56.35;99640.59;10089122;29;20461;-81
2022/10/15 01:05:36;;;;;;;13.02;10.20;;;;;;;15.59;57.93;99641.66;10075140;29;20572;-81
2022/10/15 01:11:05;;;;;;;12.07;10.20;;;;;;;15.95;56.46;99637.22;10074079;29;20524;-81
2022/10/15 01:17:12;;;;;;;13.33;10.87;;;;;;;15.85;57.45;99644.41;10088799;29;20233;-83
2022/10/15 01:23:15;;;;;;;12.27;11.00;;;;;;;15.33;58.70;99639.66;10084365;29;20194;-81
2022/10/15 01:29:02;;;;;;;13.73;12.13;;;;;;;16.03;56.62;99638.91;10062292;29;20217;-81
2022/10/15 01:34:32;;;;;;;15.93;14.23;;;;;;;16.03;56.48;99638.91;10095214;29;20206;-80
2022/10/15 01:40:10;;;;;;;13.93;11.67;;;;;;;15.81;56.95;99634.19;10063063;29;20573;-81
2022/10/15 01:45:37;;;;;;;13.10;11.77;;;;;;;15.60;57.33;99634.78;10077323;29;20202;-84
2022/10/15 01:51:14;;;;;;;11.77;10.57;;;;;;;15.72;57.42;99643.03;10076627;29;20226;-84
2022/10/15 01:56:37;;;;;;;11.20;9.97;;;;;;;15.69;56.86;99645.84;10085548;29;20217;-81
2022/10/15 02:02:00;;;;;;;12.07;10.77;;;;;;;15.47;57.41;99650.41;10075100;29;20257;-81
2022/10/15 02:07:46;;;;;;;12.83;11.53;;;;;;;15.46;57.71;99649.59;10064870;29;20741;-81
2022/10/15 02:13:19;;;;;;;10.03;9.00;;;;;;;15.56;56.79;99642.44;10070967;29;20308;-81
2022/10/15 02:19:06;;;;;;;12.37;10.10;;;;;;;15.28;57.65;99645.66;10069612;29;20282;-81
2022/10/15 02:24:34;;;;;;;11.98;10.85;;;;;;;15.10;58.04;99639.75;10086202;29;20250;-84
2022/10/15 02:29:59;;;;;;;12.03;10.83;;;;;;;15.52;57.36;99628.16;10065400;29;20650;-81
2022/10/15 02:35:22;;;;;;;12.83;11.17;;;;;;;15.81;56.43;99625.69;10055119;29;20210;-84
2022/10/15 02:40:45;;;;;;;13.03;10.83;;;;;;;15.72;55.80;99623.16;10097958;29;20194;-84
2022/10/15 02:46:09;;;;;;;15.32;12.02;;;;;;;15.34;57.18;99629.13;10075948;29;20280;-84
2022/10/15 02:51:33;;;;;;;13.50;10.70;;;;;;;14.98;59.21;99627.81;10049213;29;20692;-84
2022/10/15 02:56:55;;;;;;;12.33;10.97;;;;;;;15.21;58.51;99636.25;10064523;29;20242;-85
2022/10/15 03:02:19;;;;;;;11.60;10.40;;;;;;;15.01;58.94;99636.34;10072138;29;20202;-85
2022/10/15 03:07:42;;;;;;;15.07;10.90;;;;;;;14.79;59.54;99640.91;10038363;29;20210;-84
2022/10/15 03:13:05;;;;;;;14.45;12.63;;;;;;;14.58;61.23;99643.38;10066622;29;20288;-85
2022/10/15 03:18:27;;;;;;;18.53;13.20;;;;;;;14.26;61.89;99636.31;10076034;29;20553;-82
2022/10/15 03:23:51;;;;;;;18.03;14.67;;;;;;;15.06;58.73;99623.88;10078204;29;20612;-85
2022/10/15 03:29:14;;;;;;;18.13;14.93;;;;;;;15.27;57.44;99624.16;10056033;29;20280;-85
2022/10/15 03:34:38;;;;;;;17.40;14.73;;;;;;;15.40;57.07;99636.09;10058343;29;20214;-84
2022/10/15 03:40:00;;;;;;;18.20;15.00;;;;;;;15.13;58.03;99624.78;10070176;29;20234;-83
2022/10/15 03:45:27;;;;;;;16.37;13.87;;;;;;;15.00;58.14;99614.84;10078860;29;20213;-84
2022/10/15 03:50:54;;;;;;;17.83;14.00;;;;;;;14.90;59.31;99609.03;10070699;29;20226;-85
2022/10/15 03:56:17;;;;;;;15.90;14.20;;;;;;;14.97;58.36;99598.63;10054866;29;20281;-84
2022/10/15 04:01:55;;;;;;;19.03;14.87;;;;;;;14.90;57.95;99598.50;10050323;29;20202;-84
2022/10/15 04:07:18;;;;;;;19.00;15.67;;;;;;;14.86;58.00;99608.16;10059221;29;20217;-84
2022/10/15 04:12:45;;;;;;;20.53;16.60;;;;;;;14.37;59.34;99591.94;10086849;29;20233;-85
2022/10/15 04:18:09;;;;;;;17.87;15.90;;;;;;;14.04;59.63;99607.59;10089894;29;20213;-85
2022/10/15 04:23:31;;;;;;;21.95;16.10;;;;;;;14.57;58.34;99618.22;10075216;29;20213;-85
2022/10/15 04:29:02;;;;;;;22.30;17.60;;;;;;;14.42;58.04;99617.97;10084988;29;20209;-85
2022/10/15 04:34:24;;;;;;;20.55;17.85;;;;;;;14.74;56.82;99621.31;10061371;29;20281;-84
2022/10/15 04:39:48;;;;;;;22.80;19.00;;;;;;;14.16;59.37;99625.59;10069304;29;20219;-83
2022/10/15 04:45:10;;;;;;;27.33;21.10;;;;;;;14.04;59.51;99635.09;10070716;29;20213;-85
2022/10/15 04:50:23;;;;;;;26.40;21.92;;;;;;;14.55;58.02;99627.09;10059353;29;20515;-83
2022/10/15 04:55:59;;;;;;;30.13;22.65;;;;;;;14.05;59.42;99626.25;10080017;29;20210;-84
2022/10/15 05:01:21;;;;;;;29.23;22.33;;;;;;;14.51;58.56;99623.38;10099630;29;20198;-84
2022/10/15 05:06:44;;;;;;;27.80;23.43;;;;;;;13.60;61.85;99637.44;10081333;29;20266;-87
2022/10/15 05:12:07;;;;;;;29.40;23.47;;;;;;;14.12;59.70;99631.19;10068149;29;20635;-85
2022/10/15 05:17:29;;;;;;;32.37;25.37;;;;;;;14.50;58.75;99623.75;10069327;29;20206;-85
2022/10/15 05:22:51;;;;;;;31.40;23.33;;;;;;;14.46;58.73;99612.34;10041316;29;20210;-83
2022/10/15 05:28:16;;;;;;;31.70;24.57;;;;;;;13.67;62.53;99620.59;10067705;29;20276;-85
2022/10/15 05:33:39;;;;;;;29.10;22.67;;;;;;;14.59;57.90;99613.00;10082272;29;20238;-85
2022/10/15 05:39:11;;;;;;;30.57;23.57;;;;;;;14.32;59.01;99607.28;10069795;29;20209;-84
2022/10/15 05:44:34;;;;;;;30.00;24.17;;;;;;;14.21;60.03;99605.44;10079307;29;20770;-85
2022/10/15 05:49:56;;;;;;;30.20;24.27;;;;;;;14.73;56.95;99601.84;10056426;29;20667;-83
2022/10/15 05:55:21;;;;;;;33.53;25.10;;;;;;;13.90;60.41;99615.78;10056358;29;20717;-85
2022/10/15 06:00:44;;;;;;;32.77;25.27;;;;;;;14.08;59.32;99624.63;10084449;29;20209;-83
2022/10/15 06:06:18;;;;;;;33.87;24.60;;;;;;;14.20;59.13;99635.00;10069675;29;20492;-81
2022/10/15 06:11:40;;;;;;;29.47;23.37;;;;;;;14.52;58.14;99644.88;10057091;29;20261;-85
2022/10/15 06:17:02;;;;;;;33.20;24.47;;;;;;;14.46;58.19;99644.34;10080085;29;20542;-84
2022/10/15 06:22:25;;;;;;;32.83;24.40;;;;;;;14.20;59.12;99643.50;10082295;29;20553;-81
2022/10/15 06:27:36;;;;;;;30.73;23.80;;;;;;;14.63;57.92;99640.19;10080164;29;20206;-81
2022/10/15 06:33:01;;;;;;;31.53;24.43;;;;;;;14.40;59.16;99642.22;10094664;29;20507;-85
2022/10/15 06:38:10;;;;;;;33.77;24.60;;;;;;;14.85;57.25;99641.38;10083557;29;20241;-83
2022/10/15 06:43:32;;;;;;;34.97;24.23;;;;;;;14.01;59.90;99653.69;10099094;29;20206;-81
2022/10/15 06:48:53;;;;;;;34.00;24.07;;;;;;;13.75;61.31;99659.19;10097078;29;20473;-81
2022/10/15 06:54:17;;;;;;;31.43;23.10;;;;;;;14.70;57.33;99654.50;10086578;29;20504;-81
2022/10/15 06:59:39;;;;;;;33.73;24.83;;;;;;;14.85;57.70;99663.28;10096439;29;20198;-82
2022/10/15 07:05:02;;;;;;;33.83;23.00;;;;;;;15.03;57.45;99653.00;10072324;29;20282;-83
2022/10/15 07:10:25;;;;;;;32.23;24.47;;;;;;;15.47;55.38;99653.25;10080378;29;20289;-84
2022/10/15 07:15:52;;;;;;;35.53;26.07;;;;;;;15.15;57.28;99656.44;10081929;29;20222;-85
2022/10/15 07:21:14;;;;;;;31.97;24.70;;;;;;;15.20;56.77;99652.47;10081729;29;20222;-86
2022/10/15 07:26:36;;;;;;;32.73;24.17;;;;;;;15.27;56.44;99663.91;10081728;29;20218;-86
2022/10/15 07:31:58;;;;;;;33.40;24.60;;;;;;;15.35;56.17;99657.13;10082407;29;20226;-84
2022/10/15 07:37:20;;;;;;;32.10;24.17;;;;;;;14.65;58.13;99660.50;10084785;29;20214;-85
2022/10/15 07:42:42;;;;;;;32.13;23.07;;;;;;;14.87;58.02;99664.50;10064919;29;20203;-82
2022/10/15 07:48:05;;;;;;;31.57;24.23;;;;;;;15.31;56.33;99663.97;10077617;29;20607;-84
2022/10/15 07:53:27;;;;;;;30.23;23.80;;;;;;;15.11;57.32;99666.91;10083639;29;20707;-83
2022/10/15 07:58:52;;;;;;;32.90;23.47;;;;;;;14.40;60.89;99667.75;10068971;29;20273;-82
2022/10/15 08:04:14;;;;;;;30.70;22.93;;;;;;;13.96;61.79;99672.94;10094071;29;20262;-83
2022/10/15 08:09:36;;;;;;;29.50;23.73;;;;;;;14.83;60.22;99662.84;10071414;29;20285;-82
2022/10/15 08:14:45;;;;;;;32.05;23.38;;;;;;;14.22;62.16;99672.25;10077086;29;20587;-84
2022/10/15 08:20:08;;;;;;;29.63;23.63;;;;;;;14.91;58.79;99661.75;10074946;29;20281;-83
2022/10/15 08:25:31;;;;;;;25.08;19.67;;;;;;;15.14;58.40;99656.81;10089220;29;20686;-83
2022/10/15 08:30:54;;;;;;;27.23;19.67;;;;;;;14.63;60.31;99651.53;10063594;29;21005;-84
2022/10/15 08:36:16;;;;;;;21.17;17.27;;;;;;;15.86;56.35;99648.06;10094016;29;20230;-84
2022/10/15 08:41:53;;;;;;;19.30;15.53;;;;;;;14.90;57.41;99643.91;10063318;29;20225;-84
2022/10/15 08:47:41;;;;;;;19.47;15.63;;;;;;;16.06;54.70;99640.97;10077117;29;20274;-83
2022/10/15 08:53:03;;;;;;;19.00;15.03;;;;;;;15.70;55.96;99647.47;10074355;29;20257;-83
2022/10/15 08:58:34;;;;;;;14.53;12.70;;;;;;;15.19;57.32;99653.66;10063891;29;20277;-84
2022/10/15 09:04:23;;;;;;;11.60;10.40;;;;;;;15.29;56.24;99643.66;10093535;29;20198;-82
2022/10/15 09:09:35;;;;;;;11.13;10.03;;;;;;;15.20;56.14;99645.97;10076059;29;20333;-81
2022/10/15 09:14:58;;;;;;;9.10;8.17;;;;;;;15.48;55.36;99647.19;10062446;29;20260;-83
2022/10/15 09:20:25;;;;;;;9.20;7.70;;;;;;;16.34;53.96;99628.28;10066683;29;20241;-81
2022/10/15 09:26:25;;;;;;;7.05;6.40;;;;;;;15.68;55.27;99627.16;10075364;29;20529;-82
2022/10/15 09:31:54;;;;;;;7.35;6.03;;;;;;;15.74;54.58;99634.13;10062540;29;20291;-82
2022/10/15 09:37:54;;;;;;;5.03;4.27;;;;;;;15.12;55.27;99633.66;10072868;29;20277;-83
2022/10/15 09:43:26;;;;;;;3.67;3.37;;;;;;;15.45;54.87;99619.53;10062049;29;20627;-82
2022/10/15 09:48:53;;;;;;;3.07;2.30;;;;;;;15.39;55.83;99618.22;10064958;29;20229;-80
2022/10/15 09:54:29;;;;;;;2.65;2.00;;;;;;;16.50;52.29;99600.41;10046042;29;20289;-82
2022/10/15 09:59:56;;;;;;;4.65;2.20;;;;;;;15.87;54.75;99607.09;10056660;29;20312;-81
2022/10/15 10:05:29;;;;;;;1.40;1.15;;;;;;;16.17;53.26;99609.81;10056719;29;20269;-82
2022/10/15 10:10:54;;;;;;;1.25;1.15;;;;;;;17.03;51.36;99594.31;10069121;29;20261;-83
2022/10/15 10:16:18;;;;;;;1.00;0.82;;;;;;;16.78;51.02;99588.41;10069318;29;20229;-83
2022/10/15 10:21:42;;;;;;;0.90;0.80;;;;;;;16.65;51.66;99601.34;10073643;29;20229;-82
2022/10/15 10:27:16;;;;;;;1.63;0.43;;;;;;;17.25;50.93;99590.34;10070277;29;20266;-82
2022/10/15 10:32:39;;;;;;;9.93;0.60;;;;;;;17.09;52.48;99576.44;10065300;29;20308;-83
2022/10/15 10:38:01;;;;;;;0.32;0.30;;;;;;;16.95;54.11;99575.53;10085905;29;20237;-84
2022/10/15 10:43:26;;;;;;;3.08;0.43;;;;;;;16.37;55.89;99573.47;10083270;29;20336;-81
2022/10/15 10:48:49;;;;;;;0.25;0.25;;;;;;;16.83;54.62;99563.22;10067432;29;20289;-81
2022/10/15 10:54:13;;;;;;;0.40;0.10;;;;;;;16.54;55.17;99556.53;10065504;29;20334;-83
2022/10/15 10:59:42;;;;;;;1.27;0.30;;;;;;;16.89;54.46;99550.28;10074632;29;20233;-83
2022/10/15 11:05:04;;;;;;;0.40;0.13;;;;;;;16.82;54.78;99561.59;10070325;29;20233;-83
2022/10/15 11:10:42;;;;;;;0.63;0.20;;;;;;;16.23;57.98;99550.59;10092996;29;20297;-82
2022/10/15 11:16:10;;;;;;;1.17;0.10;;;;;;;16.30;57.50;99550.66;10085051;29;20262;-83
2022/10/15 11:21:51;;;;;;;0.30;0.30;;;;;;;15.85;59.28;99546.97;10068696;29;20561;-82
2022/10/15 11:27:44;;;;;;;1.30;0.20;;;;;;;15.94;60.34;99550.31;10079954;29;20715;-80
2022/10/15 11:33:06;;;;;;;0.10;0.10;;;;;;;16.00;60.99;99554.44;10086480;29;20321;-84
2022/10/15 11:39:16;;;;;;;0.73;0.20;;;;;;;15.56;63.10;99531.66;10087987;29;20523;-83
2022/10/15 11:44:44;;;;;;;0.10;0.10;;;;;;;17.17;57.92;99531.75;10053018;29;20241;-84
2022/10/15 11:50:26;;;;;;;0.93;0.20;;;;;;;17.54;56.45;99518.03;10084907;29;20627;-84
2022/10/15 11:56:00;;;;;;;0.40;0.20;;;;;;;16.27;59.62;99511.66;10075150;29;20261;-81
2022/10/15 12:01:38;;;;;;;1.17;0.20;;;;;;;17.32;56.12;99507.78;10066199;29;21186;-80
2022/10/15 12:07:04;;;;;;;1.35;0.20;;;;;;;17.72;54.73;99494.47;10070637;29;20552;-81
2022/10/15 12:12:49;;;;;;;0.32;0.30;;;;;;;17.38;55.04;99502.50;10069614;29;20261;-81
2022/10/15 12:18:39;;;;;;;0.20;0.20;;;;;;;17.20;55.38;99496.75;10054957;29;20242;-81
2022/10/15 12:24:09;;;;;;;0.17;0.17;;;;;;;17.45;54.67;99486.25;10082936;29;20298;-81
2022/10/15 12:29:31;;;;;;;0.10;0.10;;;;;;;17.43;55.15;99493.59;10066635;29;20225;-82
2022/10/15 12:34:55;;;;;;;1.98;0.20;;;;;;;17.34;55.02;99491.09;10068456;29;20281;-81
2022/10/15 12:40:30;;;;;;;0.30;0.30;;;;;;;17.00;57.08;99481.22;10076419;29;20233;-83
2022/10/15 12:45:58;;;;;;;3.38;0.30;;;;;;;17.69;54.48;99478.19;10077910;29;20286;-82
2022/10/15 12:51:26;;;;;;;1.42;0.20;;;;;;;16.58;59.71;99472.03;10093525;29;20266;-81
2022/10/15 12:56:56;;;;;;;1.60;0.30;;;;;;;16.84;58.82;99467.28;10067954;29;20535;-80
2022/10/15 13:02:36;;;;;;;0.82;0.52;;;;;;;17.45;56.47;99476.88;10091149;29;20676;-77
2022/10/15 13:07:46;;;;;;;2.38;0.30;;;;;;;17.56;55.67;99450.06;10068117;29;20209;-80
2022/10/15 13:13:13;;;;;;;0.87;0.40;;;;;;;17.41;56.08;99459.78;10050635;29;20338;-81
2022/10/15 13:18:35;;;;;;;1.45;0.10;;;;;;;17.44;55.42;99467.53;10044162;29;20211;-81
2022/10/15 13:24:00;;;;;;;0.10;0.10;;;;;;;17.52;55.56;99468.38;10038095;29;20242;-80
2022/10/15 13:29:24;;;;;;;1.65;0.20;;;;;;;18.75;52.06;99461.00;10047734;29;20295;-81
2022/10/15 13:34:47;;;;;;;2.47;0.57;;;;;;;17.91;54.15;99466.41;10045693;29;20223;-81
2022/10/15 13:40:26;;;;;;;1.30;0.30;;;;;;;18.15;54.05;99461.91;10058145;29;20207;-81
2022/10/15 13:45:53;;;;;;;0.43;0.20;;;;;;;18.43;53.30;99454.56;10047303;29;20709;-81
2022/10/15 13:51:15;;;;;;;1.90;0.30;;;;;;;18.58;52.89;99453.31;10039104;29;20238;-80
2022/10/15 13:56:41;;;;;;;0.30;0.30;;;;;;;18.92;52.40;99443.00;10039494;29;20234;-81
2022/10/15 14:02:10;;;;;;;2.92;0.30;;;;;;;18.30;53.94;99451.34;10041921;29;20231;-80
2022/10/15 14:07:32;;;;;;;1.33;0.20;;;;;;;17.90;55.20;99458.25;10044615;29;20259;-81
2022/10/15 14:12:54;;;;;;;0.20;0.10;;;;;;;18.62;54.19;99457.78;10023999;29;20266;-80
2022/10/15 14:18:27;;;;;;;2.65;0.20;;;;;;;18.86;53.20;99450.38;10045085;29;20230;-80
2022/10/15 14:23:49;;;;;;;0.70;0.20;;;;;;;18.41;53.98;99452.13;10022555;29;20300;-81
2022/10/15 14:29:38;;;;;;;0.98;0.20;;;;;;;18.82;53.16;99465.88;10045067;29;20233;-81
2022/10/15 14:35:01;;;;;;;0.25;0.20;;;;;;;18.85;52.90;99465.88;10038488;29;20254;-80
2022/10/15 14:40:23;;;;;;;0.98;0.20;;;;;;;18.27;54.05;99455.78;10042254;29;20230;-81
2022/10/15 14:45:51;;;;;;;1.00;0.10;;;;;;;18.32;54.46;99455.41;10040792;29;20242;-76
2022/10/15 14:51:20;;;;;;;3.60;0.30;;;;;;;17.69;57.11;99466.81;10040165;29;20241;-81
2022/10/15 14:56:42;;;;;;;0.52;0.15;;;;;;;18.06;56.33;99469.25;10046126;29;20283;-83
2022/10/15 15:02:06;;;;;;;0.85;0.30;;;;;;;18.19;56.34;99459.06;10030993;29;20608;-83
2022/10/15 15:07:28;;;;;;;1.80;0.40;;;;;;;18.46;55.07;99476.59;10041048;29;21344;-82
2022/10/15 15:12:53;;;;;;;1.52;0.60;;;;;;;17.62;57.24;99479.81;10030340;29;20321;-81
2022/10/15 15:18:16;;;;;;;1.20;0.30;;;;;;;17.83;57.39;99467.63;10035020;29;20287;-82
2022/10/15 15:23:38;;;;;;;1.45;0.22;;;;;;;17.24;58.63;99471.94;10026006;29;20259;-83
2022/10/15 15:29:00;;;;;;;3.70;0.40;;;;;;;17.95;57.30;99503.47;10033711;29;20289;-82
2022/10/15 15:34:23;;;;;;;1.30;0.40;;;;;;;17.55;56.24;99499.72;10040634;29;20265;-80
2022/10/15 15:39:45;;;;;;;3.00;1.42;;;;;;;18.86;51.89;99507.47;10041264;29;20238;-81
2022/10/15 15:45:16;;;;;;;0.80;0.80;;;;;;;17.55;56.89;99525.38;10036629;29;20736;-81
2022/10/15 15:50:38;;;;;;;0.98;0.55;;;;;;;18.21;55.47;99510.81;10048557;29;21085;-81
2022/10/15 15:56:00;;;;;;;1.42;0.60;;;;;;;18.66;54.19;99517.72;10042983;29;20279;-81
2022/10/15 16:01:23;;;;;;;0.93;0.85;;;;;;;18.36;55.65;99517.34;10033707;29;20230;-81
2022/10/15 16:06:47;;;;;;;2.97;1.10;;;;;;;17.51;59.28;99535.09;10049155;29;20230;-81
2022/10/15 16:12:09;;;;;;;2.05;1.00;;;;;;;17.99;57.71;99538.50;10068884;29;20273;-81
2022/10/15 16:17:33;;;;;;;1.10;1.00;;;;;;;16.97;61.30;99544.63;10067334;29;20234;-80
2022/10/15 16:22:55;;;;;;;2.47;1.20;;;;;;;17.60;59.89;99566.88;10091957;29;20237;-80
2022/10/15 16:28:17;;;;;;;1.90;1.00;;;;;;;17.37;60.30;99570.06;10089609;29;20237;-80
2022/10/15 16:33:39;;;;;;;2.35;0.90;;;;;;;17.24;59.83;99575.28;10094957;29;20313;-80
2022/10/15 16:39:02;;;;;;;2.72;0.70;;;;;;;17.44;58.90;99584.34;10090974;29;20610;-81
2022/10/15 16:44:24;;;;;;;1.00;0.73;;;;;;;17.76;57.76;99575.91;10071105;29;20298;-80
2022/10/15 16:49:47;;;;;;;1.90;1.70;;;;;;;17.23;59.85;99587.91;10063589;29;20233;-81
2022/10/15 16:55:09;;;;;;;5.57;2.53;;;;;;;17.03;60.39;99594.31;10069402;29;20256;-80
2022/10/15 17:00:31;;;;;;;1.30;1.20;;;;;;;17.08;59.76;99606.13;10066090;29;20305;-82
2022/10/15 17:05:40;;;;;;;1.35;0.82;;;;;;;17.28;59.85;99618.03;10061348;29;20266;-83
2022/10/15 17:11:02;;;;;;;1.90;1.60;;;;;;;16.85;61.58;99643.34;10065273;29;20272;-82
2022/10/15 17:16:28;;;;;;;3.53;1.95;;;;;;;15.83;65.35;99651.69;10076329;29;20879;-83
2022/10/15 17:21:51;;;;;;;2.95;2.75;;;;;;;17.57;58.61;99668.25;10054126;29;20338;-83
2022/10/15 17:27:13;;;;;;;2.77;2.50;;;;;;;17.38;58.51;99674.25;10060725;29;20228;-84
2022/10/15 17:32:35;;;;;;;3.17;2.53;;;;;;;17.43;58.37;99699.53;10083061;29;20246;-83
2022/10/15 17:37:58;;;;;;;2.33;2.10;;;;;;;16.99;59.17;99713.03;10073102;29;20257;-85
2022/10/15 17:43:20;;;;;;;4.53;1.90;;;;;;;17.11;57.89;99733.47;10088387;29;20221;-81
2022/10/15 17:48:42;;;;;;;3.92;3.13;;;;;;;16.64;58.05;99751.31;10072603;29;20312;-84
2022/10/15 17:54:05;;;;;;;2.63;1.40;;;;;;;16.70;55.72;99766.81;10072032;29;20282;-84
2022/10/15 17:59:27;;;;;;;2.08;1.40;;;;;;;16.76;55.18;99776.66;10077189;29;20312;-84
2022/10/15 18:04:49;;;;;;;1.42;0.93;;;;;;;16.66;50.51;99768.00;10076502;29;20229;-83
2022/10/15 18:10:13;;;;;;;3.13;2.10;;;;;;;17.02;51.12;99774.88;10058389;29;20289;-83
2022/10/15 18:15:47;;;;;;;2.30;1.75;;;;;;;17.01;50.54;99791.13;10064535;29;20591;-83
2022/10/15 18:21:12;;;;;;;4.28;1.77;;;;;;;17.28;50.96;99791.78;10053586;29;20624;-83
2022/10/15 18:26:52;;;;;;;3.57;2.40;;;;;;;17.40;52.09;99800.00;10071609;29;20230;-84
2022/10/15 18:32:18;;;;;;;3.55;2.30;;;;;;;17.64;52.29;99790.03;10057855;29;20245;-82
2022/10/15 18:37:33;;;;;;;5.97;5.18;;;;;;;17.35;54.71;99794.66;10058485;29;20615;-82
2022/10/15 18:42:57;;;;;;;4.32;3.80;;;;;;;17.02;57.49;99811.88;10073690;29;20237;-84
2022/10/15 18:48:19;;;;;;;3.72;2.92;;;;;;;16.70;58.79;99806.66;10089098;29;20233;-83
2022/10/15 18:53:44;;;;;;;4.10;2.17;;;;;;;16.96;56.07;99828.50;10070164;29;20269;-82
2022/10/15 18:59:06;;;;;;;2.43;1.33;;;;;;;17.15;54.23;99813.22;10072166;29;20254;-81
2022/10/15 19:04:28;;;;;;;1.45;1.35;;;;;;;17.08;53.41;99836.75;10082910;29;20221;-83
2022/10/15 19:09:52;;;;;;;4.40;1.60;;;;;;;17.09;53.67;99832.69;10084356;29;20634;-82
2022/10/15 19:15:17;;;;;;;1.60;1.50;;;;;;;16.59;55.20;99825.63;10077456;29;20304;-83
2022/10/15 19:20:39;;;;;;;5.77;2.10;;;;;;;16.26;56.13;99817.13;10044569;29;20226;-84
2022/10/15 19:26:05;;;;;;;5.73;2.07;;;;;;;16.17;57.69;99818.19;10050968;29;20573;-84
2022/10/15 19:31:35;;;;;;;2.50;2.30;;;;;;;16.33;57.51;99823.69;10037987;29;20261;-81
2022/10/15 19:37:00;;;;;;;3.63;3.33;;;;;;;16.38;58.10;99843.28;10060307;29;20736;-81
2022/10/15 19:42:23;;;;;;;5.60;3.75;;;;;;;16.37;57.80;99852.19;10074546;29;20627;-84
2022/10/15 19:47:45;;;;;;;6.53;3.77;;;;;;;16.07;59.99;99855.81;10062535;29;20226;-84
2022/10/15 19:53:10;;;;;;;3.97;3.58;;;;;;;15.79;60.89;99856.22;10080018;29;20274;-83
2022/10/15 19:58:33;;;;;;;4.37;3.97;;;;;;;15.76;61.55;99878.91;10065028;29;20237;-84
2022/10/15 20:04:00;;;;;;;4.10;3.30;;;;;;;15.62;60.85;99861.66;10081549;29;20593;-80
2022/10/15 20:09:22;;;;;;;3.55;3.25;;;;;;;15.46;60.95;99865.41;10067962;29;20264;-83
2022/10/15 20:14:44;;;;;;;6.22;3.15;;;;;;;15.54;61.01;99879.75;10060384;29;20310;-83
2022/10/15 20:20:07;;;;;;;4.90;3.07;;;;;;;15.46;60.49;99871.09;10089341;29;20225;-84
2022/10/15 20:25:30;;;;;;;6.97;3.80;;;;;;;15.17;61.11;99875.47;10092623;29;20293;-85
2022/10/15 20:30:54;;;;;;;3.60;3.05;;;;;;;15.02;61.87;99884.91;10082920;29;20347;-85
2022/10/15 20:36:03;;;;;;;7.00;2.43;;;;;;;15.15;61.30;99894.88;10074776;29;20530;-83
2022/10/15 20:41:25;;;;;;;6.13;2.70;;;;;;;15.51;60.00;99904.88;10097978;29;20233;-84
2022/10/15 20:46:52;;;;;;;4.13;2.30;;;;;;;15.42;58.60;99904.28;10066611;29;20282;-82
2022/10/15 20:52:14;;;;;;;4.87;2.50;;;;;;;15.03;59.34;99911.28;10074587;29;20268;-82
2022/10/15 20:57:37;;;;;;;7.47;2.83;;;;;;;14.76;60.81;99911.16;10074212;29;20310;-83
2022/10/15 21:02:59;;;;;;;7.13;2.23;;;;;;;14.65;59.93;99918.59;10058846;29;20309;-83
2022/10/15 21:08:26;;;;;;;4.53;3.50;;;;;;;14.99;59.57;99935.91;10068999;29;20222;-84
2022/10/15 21:13:48;;;;;;;2.87;2.67;;;;;;;14.56;60.69;99940.69;10079771;29;20265;-85
2022/10/15 21:19:09;;;;;;;4.27;2.23;;;;;;;14.50;61.60;99945.00;10048473;29;20250;-84
2022/10/15 21:24:35;;;;;;;6.13;3.53;;;;;;;14.40;61.39;99951.28;10071482;29;20254;-84
2022/10/15 21:29:57;;;;;;;4.43;3.00;;;;;;;14.96;59.14;99965.91;10070390;29;20230;-83
2022/10/15 21:35:19;;;;;;;6.23;3.03;;;;;;;14.43;61.12;99965.53;10078603;29;20253;-84
2022/10/15 21:40:41;;;;;;;6.37;3.00;;;;;;;14.45;61.21;99979.34;10064441;29;20659;-84
2022/10/15 21:46:09;;;;;;;5.63;2.80;;;;;;;14.46;62.09;99980.97;10081007;29;20237;-82
2022/10/15 21:51:32;;;;;;;4.47;2.70;;;;;;;14.23;62.05;99982.88;10081355;29;20201;-82
2022/10/15 21:56:54;;;;;;;4.93;2.80;;;;;;;14.84;60.27;99990.75;10083621;29;20226;-82
2022/10/15 22:02:16;;;;;;;5.33;2.63;;;;;;;14.57;60.88;99998.25;10094221;29;20226;-82
2022/10/15 22:07:19;;;;;;;4.43;2.83;;;;;;;14.67;60.50;100001.31;10073275;29;20758;-83
2022/10/15 22:12:50;;;;;;;4.67;2.90;;;;;;;14.85;59.83;99995.25;10062274;29;20242;-83
2022/10/15 22:18:12;;;;;;;5.50;2.80;;;;;;;14.50;61.57;99993.22;10093455;29;20221;-83
2022/10/15 22:23:34;;;;;;;3.27;2.60;;;;;;;14.65;61.26;99977.34;10088022;29;20243;-82
2022/10/15 22:29:05;;;;;;;3.47;2.70;;;;;;;14.89;59.66;99985.59;10076831;29;20201;-83
2022/10/15 22:34:27;;;;;;;5.23;3.17;;;;;;;14.42;61.59;99992.25;10074962;29;20217;-82
2022/10/15 22:39:49;;;;;;;5.05;3.45;;;;;;;14.55;61.24;99995.78;10101142;29;20226;-82
2022/10/15 22:45:11;;;;;;;5.07;3.60;;;;;;;14.44;61.79;99997.56;10069954;29;20216;-83
2022/10/15 22:50:33;;;;;;;3.90;2.57;;;;;;;14.80;59.84;99988.66;10087066;29;20201;-82
2022/10/15 22:56:00;;;;;;;4.40;3.10;;;;;;;14.80;60.74;99980.16;10083527;29;20246;-83
2022/10/15 23:01:27;;;;;;;3.75;2.20;;;;;;;14.58;60.36;100000.72;10070563;29;20222;-83
2022/10/15 23:06:49;;;;;;;4.23;2.20;;;;;;;14.30;61.52;100005.72;10070531;29;20269;-83
2022/10/15 23:12:11;;;;;;;7.53;2.63;;;;;;;14.40;61.54;100005.16;10077424;29;20270;-82
2022/10/15 23:17:34;;;;;;;4.97;2.30;;;;;;;14.15;62.19;100006.56;10076454;29;20225;-83
2022/10/15 23:22:56;;;;;;;5.00;2.57;;;;;;;14.25;61.33;99992.66;10074216;29;20234;-83
2022/10/15 23:28:18;;;;;;;4.97;2.80;;;;;;;14.42;60.68;100008.44;10069865;29;20212;-82
2022/10/15 23:33:40;;;;;;;11.40;2.30;;;;;;;14.60;60.49;100009.66;10083686;29;20201;-82
2022/10/15 23:39:04;;;;;;;4.30;1.95;;;;;;;14.41;60.44;100012.47;10069936;29;20210;-83
2022/10/15 23:44:27;;;;;;;5.63;1.90;;;;;;;14.85;58.99;100009.44;10101270;29;20197;-83
2022/10/15 23:49:37;;;;;;;4.30;1.57;;;;;;;13.92;61.35;100021.38;10096386;29;20210;-82
2022/10/15 23:54:59;;;;;;;5.63;2.15;;;;;;;14.60;59.54;100017.34;10109465;29;20686;-83
